createdAt,value
2023-04-06T00:01:58.903Z,83.65
2023-04-06T00:04:28.231Z,83.78
2023-04-06T00:06:56.036Z,84.37
2023-04-06T00:09:23.841Z,84.72
2023-04-06T00:11:51.736Z,85.47
2023-04-06T00:14:19.566Z,85.55
2023-04-06T00:16:47.369Z,85.81
2023-04-06T00:19:15.261Z,85.60
2023-04-06T00:21:44.494Z,85.50
2023-04-06T00:24:12.287Z,86.31
2023-04-06T00:26:40.129Z,86.08
2023-04-06T00:29:08.154Z,86.37
2023-04-06T00:31:36.307Z,86.77
2023-04-06T00:34:04.515Z,87.23
2023-04-06T00:36:32.529Z,87.07
2023-04-06T00:39:01.751Z,87.21
2023-04-06T00:41:29.674Z,87.27
2023-04-06T00:43:57.528Z,86.90
2023-04-06T00:46:25.668Z,86.64
2023-04-06T00:48:53.570Z,86.91
2023-04-06T00:51:21.394Z,87.55
2023-04-06T00:53:49.241Z,87.46
2023-04-06T00:56:18.465Z,87.28
2023-04-06T00:58:46.468Z,87.74
2023-04-06T01:01:14.319Z,87.56
2023-04-06T01:03:43.296Z,87.77
2023-04-06T01:06:11.363Z,87.04
2023-04-06T01:08:39.177Z,86.64
2023-04-06T01:11:07.107Z,86.71
2023-04-06T01:13:36.257Z,87.12
2023-04-06T01:16:04.457Z,87.38
2023-04-06T01:18:32.339Z,87.10
2023-04-06T01:21:00.714Z,87.42
2023-04-06T01:23:29.957Z,87.47
2023-04-06T01:25:57.817Z,87.60
2023-04-06T01:28:25.698Z,88.24
2023-04-06T01:30:53.592Z,87.98
2023-04-06T01:33:21.412Z,87.96
2023-04-06T01:35:49.291Z,88.38
2023-04-06T01:38:17.176Z,88.44
2023-04-06T01:40:46.567Z,88.65
2023-04-06T01:43:14.357Z,88.63
2023-04-06T01:45:42.190Z,89.14
2023-04-06T01:48:10.153Z,89.26
2023-04-06T01:50:37.945Z,89.57
2023-04-06T01:53:05.711Z,89.82
2023-04-06T01:55:33.536Z,89.85
2023-04-06T01:58:02.676Z,90.16
2023-04-06T02:00:30.667Z,90.29
2023-04-06T02:02:58.545Z,90.39
2023-04-06T02:05:27.121Z,90.31
2023-04-06T02:07:54.934Z,90.59
2023-04-06T02:10:22.799Z,90.66
2023-04-06T02:12:50.785Z,90.66
2023-04-06T02:15:20.013Z,90.66
2023-04-06T02:17:47.954Z,91.08
2023-04-06T02:20:15.914Z,91.39
2023-04-06T02:22:43.687Z,91.41
2023-04-06T02:25:11.895Z,91.76
2023-04-06T02:27:39.838Z,91.66
2023-04-06T02:30:08.980Z,91.95
2023-04-06T02:32:38.227Z,92.43
2023-04-06T02:35:06.903Z,92.73
2023-04-06T02:37:34.695Z,92.53
2023-04-06T02:40:02.540Z,92.51
2023-04-06T02:42:30.378Z,92.56
2023-04-06T02:44:58.149Z,92.44
2023-04-06T02:47:26.065Z,92.31
2023-04-06T02:49:55.210Z,91.74
2023-04-06T02:52:23.002Z,91.37
2023-04-06T02:54:52.120Z,91.62
2023-04-06T02:57:19.929Z,92.01
2023-04-06T02:59:47.728Z,92.40
2023-04-06T03:02:15.648Z,92.97
2023-04-06T03:04:44.016Z,93.05
2023-04-06T03:07:13.177Z,93.56
2023-04-06T03:09:41.196Z,93.24
2023-04-06T03:12:10.148Z,93.25
2023-04-06T03:14:38.231Z,92.93
2023-04-06T03:17:06.073Z,93.22
2023-04-06T03:19:33.884Z,93.48
2023-04-06T03:22:01.697Z,93.63
2023-04-06T03:24:30.894Z,93.41
2023-04-06T03:26:58.687Z,93.66
2023-04-06T03:29:26.485Z,93.87
2023-04-06T03:31:54.356Z,93.89
2023-04-06T03:34:22.163Z,94.21
2023-04-06T03:37:02.929Z,94.17
2023-04-06T03:39:38.475Z,94.78
2023-04-06T03:42:06.632Z,95.08
2023-04-06T03:44:34.415Z,95.39
2023-04-06T03:47:03.265Z,95.61
2023-04-06T03:49:31.240Z,95.70
2023-04-06T03:51:59.027Z,95.88
2023-04-06T03:54:26.871Z,95.75
2023-04-06T03:56:56.100Z,96.29
2023-04-06T03:59:24.001Z,96.94
2023-04-06T04:01:52.011Z,97.29
2023-04-06T04:04:19.898Z,96.98
2023-04-06T04:06:47.664Z,96.63
2023-04-06T04:09:15.768Z,96.89
2023-04-06T04:11:43.625Z,96.93
2023-04-06T04:14:12.775Z,96.49
2023-04-06T04:16:42.379Z,96.18
2023-04-06T04:19:10.576Z,95.87
2023-04-06T04:21:45.504Z,95.33
2023-04-06T04:24:13.459Z,95.40
2023-04-06T04:26:41.759Z,95.41
2023-04-06T04:29:09.972Z,95.53
2023-04-06T04:31:39.414Z,96.07
2023-04-06T04:34:07.817Z,96.26
2023-04-06T04:36:35.767Z,96.16
2023-04-06T04:39:03.689Z,96.20
2023-04-06T04:41:31.878Z,95.94
2023-04-06T04:43:59.671Z,96.36
2023-04-06T04:46:27.573Z,96.07
2023-04-06T04:48:56.983Z,96.36
2023-04-06T04:51:25.740Z,96.36
2023-04-06T04:53:53.710Z,96.32
2023-04-06T04:56:21.497Z,97.05
2023-04-06T04:58:49.353Z,97.04
2023-04-06T05:01:17.270Z,97.18
2023-04-06T05:03:45.239Z,97.00
2023-04-06T05:06:14.661Z,97.18
2023-04-06T05:08:42.843Z,96.83
2023-04-06T05:11:11.132Z,97.23
2023-04-06T05:13:39.043Z,96.58
2023-04-06T05:16:07.200Z,96.14
2023-04-06T05:18:35.107Z,96.14
2023-04-06T05:21:02.949Z,95.69
2023-04-06T05:23:32.280Z,95.18
2023-04-06T05:26:00.146Z,95.25
2023-04-06T05:28:27.973Z,95.53
2023-04-06T05:30:56.215Z,94.90
2023-04-06T05:33:24.034Z,94.15
2023-04-06T05:35:51.866Z,94.01
2023-04-06T05:38:19.713Z,93.41
2023-04-06T05:40:48.894Z,92.75
2023-04-06T05:43:16.712Z,92.22
2023-04-06T05:45:46.587Z,91.44
2023-04-06T05:48:14.423Z,89.71
2023-04-06T05:50:42.220Z,89.33
2023-04-06T05:53:10.034Z,89.54
2023-04-06T05:55:37.822Z,89.70
2023-04-06T05:58:07.016Z,89.50
2023-04-06T06:00:35.478Z,90.07
2023-04-06T06:03:05.265Z,89.41
2023-04-06T06:05:33.215Z,88.71
2023-04-06T06:08:03.138Z,87.28
2023-04-06T06:10:31.176Z,87.01
2023-04-06T06:12:58.967Z,86.73
2023-04-06T06:15:28.252Z,86.88
2023-04-06T06:17:56.073Z,86.86
2023-04-06T06:20:24.149Z,86.36
2023-04-06T06:22:52.003Z,85.78
2023-04-06T06:25:19.992Z,85.58
2023-04-06T06:27:47.866Z,85.56
2023-04-06T06:30:16.222Z,85.16
2023-04-06T06:32:45.642Z,84.25
2023-04-06T06:35:13.496Z,83.55
2023-04-06T06:37:41.369Z,83.46
2023-04-06T06:40:10.672Z,82.90
2023-04-06T06:42:38.704Z,82.11
2023-04-06T06:45:07.812Z,80.90
2023-04-06T06:47:35.665Z,79.97
2023-04-06T06:50:05.437Z,80.29
2023-04-06T06:52:33.301Z,79.95
2023-04-06T06:55:01.286Z,79.55
2023-04-06T06:57:30.280Z,77.73
2023-04-06T06:59:58.209Z,75.23
2023-04-06T07:02:26.085Z,73.37
2023-04-06T07:04:53.976Z,71.48
2023-04-06T07:07:23.194Z,69.54
2023-04-06T07:09:51.086Z,69.51
2023-04-06T07:12:18.931Z,69.95
2023-04-06T07:14:46.792Z,68.53
2023-04-06T07:17:14.704Z,69.19
2023-04-06T07:19:42.725Z,68.49
2023-04-06T07:22:10.769Z,69.09
2023-04-06T07:24:39.948Z,67.74
2023-04-06T07:27:08.206Z,67.76
2023-04-06T07:29:36.117Z,67.43
2023-04-06T07:32:04.044Z,66.93
2023-04-06T07:34:31.888Z,66.68
2023-04-06T07:37:00.613Z,65.72
2023-04-06T07:39:30.556Z,65.12
2023-04-06T07:41:59.781Z,63.80
2023-04-06T07:44:27.767Z,63.38
2023-04-06T07:46:55.543Z,63.10
2023-04-06T07:49:24.055Z,61.87
2023-04-06T07:51:51.913Z,61.69
2023-04-06T07:54:19.726Z,60.22
2023-04-06T07:56:47.524Z,59.89
2023-04-06T07:59:16.799Z,61.41
2023-04-06T08:01:44.594Z,60.28
2023-04-06T08:04:12.746Z,60.66
2023-04-06T08:06:41.996Z,60.31
2023-04-06T08:09:09.810Z,58.35
2023-04-06T08:11:37.680Z,57.51
2023-04-06T08:14:05.489Z,55.51
2023-04-06T08:16:34.684Z,56.33
2023-04-06T08:19:02.489Z,56.22
2023-04-06T08:21:30.496Z,56.28
2023-04-06T08:23:58.317Z,55.60
2023-04-06T08:26:27.184Z,57.00
2023-04-06T08:28:55.022Z,55.35
2023-04-06T08:31:22.937Z,56.53
2023-04-06T08:33:52.383Z,55.77
2023-04-06T08:36:23.597Z,54.33
2023-04-06T08:38:51.795Z,53.58
2023-04-06T08:41:20.370Z,52.19
2023-04-06T08:43:51.703Z,54.31
2023-04-06T08:46:19.682Z,51.82
2023-04-06T08:48:49.733Z,52.02
2023-04-06T08:51:21.152Z,53.22
2023-04-06T08:53:50.874Z,51.54
2023-04-06T08:56:18.948Z,48.74
2023-04-06T08:58:47.180Z,48.34
2023-04-06T09:01:16.682Z,50.60
2023-04-06T09:03:45.692Z,49.55
2023-04-06T09:06:15.100Z,47.87
2023-04-06T09:08:44.373Z,49.82
2023-04-06T09:11:12.843Z,48.87
2023-04-06T09:13:48.007Z,46.99
2023-04-06T09:16:16.356Z,45.72
2023-04-06T09:18:44.331Z,46.19
2023-04-06T09:21:12.693Z,46.93
2023-04-06T09:23:41.509Z,46.75
2023-04-06T09:26:12.819Z,47.98
2023-04-06T09:28:46.318Z,46.12
2023-04-06T09:31:15.355Z,46.84
2023-04-06T09:33:44.632Z,45.88
2023-04-06T09:36:13.206Z,45.48
2023-04-06T09:38:55.170Z,44.62
2023-04-06T09:41:26.554Z,42.84
2023-04-06T09:43:55.002Z,42.77
2023-04-06T09:46:24.543Z,43.09
2023-04-06T09:48:53.856Z,44.50
2023-04-06T09:51:22.398Z,42.21
2023-04-06T09:53:55.681Z,43.85
2023-04-06T09:56:29.838Z,42.99
2023-04-06T09:59:01.321Z,41.21
2023-04-06T10:01:31.979Z,41.35
2023-04-06T10:04:13.434Z,39.84
2023-04-06T10:06:42.589Z,40.13
2023-04-06T10:09:10.655Z,39.38
2023-04-06T10:11:40.580Z,40.09
2023-04-06T10:14:08.780Z,41.69
2023-04-06T10:16:37.826Z,41.87
2023-04-06T10:19:12.109Z,40.29
2023-04-06T10:21:40.781Z,40.31
2023-04-06T10:24:13.214Z,40.13
2023-04-06T10:26:42.464Z,39.72
2023-04-06T10:29:10.576Z,39.75
2023-04-06T10:31:45.291Z,39.34
2023-04-06T10:34:13.520Z,38.77
2023-04-06T10:36:41.321Z,39.10
2023-04-06T10:39:09.136Z,38.73
2023-04-06T10:41:42.624Z,38.41
2023-04-06T10:44:19.829Z,39.51
2023-04-06T10:46:55.696Z,38.55
2023-04-06T10:49:25.214Z,38.58
2023-04-06T10:51:56.395Z,37.98
2023-04-06T10:54:26.993Z,39.72
2023-04-06T10:56:55.030Z,39.33
2023-04-06T10:59:26.038Z,37.73
2023-04-06T11:01:54.204Z,37.79
2023-04-06T11:04:22.846Z,37.76
2023-04-06T11:06:51.792Z,39.08
2023-04-06T11:09:27.301Z,38.22
2023-04-06T11:11:56.253Z,37.64
2023-04-06T11:14:25.637Z,37.25
2023-04-06T11:16:53.522Z,37.67
2023-04-06T11:19:21.437Z,37.74
2023-04-06T11:21:50.702Z,39.09
2023-04-06T11:24:20.466Z,38.84
2023-04-06T11:26:51.992Z,38.29
2023-04-06T11:29:21.132Z,39.08
2023-04-06T11:31:52.111Z,36.96
2023-04-06T11:34:21.415Z,38.27
2023-04-06T11:36:51.277Z,36.65
2023-04-06T11:39:21.851Z,38.46
2023-04-06T11:41:50.706Z,39.32
2023-04-06T11:44:30.728Z,37.42
2023-04-06T11:47:00.778Z,38.29
2023-04-06T11:49:29.646Z,38.63
2023-04-06T11:51:57.722Z,37.63
2023-04-06T11:54:33.112Z,38.64
2023-04-06T11:57:01.613Z,38.31
2023-04-06T11:59:29.880Z,36.83
2023-04-06T12:02:01.355Z,36.98
2023-04-06T12:04:29.216Z,37.00
2023-04-06T12:06:57.131Z,37.28
2023-04-06T12:09:25.269Z,36.70
2023-04-06T12:11:53.182Z,37.03
2023-04-06T12:14:21.061Z,37.40
2023-04-06T12:16:48.896Z,38.23
2023-04-06T12:19:18.087Z,37.25
2023-04-06T12:21:46.117Z,37.34
2023-04-06T12:24:13.946Z,36.98
2023-04-06T12:26:43.008Z,37.66
2023-04-06T12:29:10.962Z,36.86
2023-04-06T12:31:41.847Z,37.92
2023-04-06T12:34:09.832Z,38.99
2023-04-06T12:36:48.156Z,37.58
2023-04-06T12:39:16.901Z,38.56
2023-04-06T12:41:44.684Z,38.13
2023-04-06T12:44:12.531Z,37.99
2023-04-06T12:46:40.602Z,36.92
2023-04-06T12:49:08.452Z,37.47
2023-04-06T12:51:36.257Z,37.68
2023-04-06T12:54:05.714Z,36.58
2023-04-06T12:56:33.686Z,38.86
2023-04-06T12:59:02.211Z,38.23
2023-04-06T13:01:30.394Z,36.88
2023-04-06T13:03:58.787Z,36.99
2023-04-06T13:06:28.602Z,36.55
2023-04-06T13:08:56.901Z,37.51
2023-04-06T13:11:28.853Z,37.15
2023-04-06T13:13:56.997Z,37.41
2023-04-06T13:16:24.935Z,36.81
2023-04-06T13:18:52.858Z,36.77
2023-04-06T13:21:21.868Z,37.23
2023-04-06T13:23:49.743Z,36.68
2023-04-06T13:26:17.985Z,37.10
2023-04-06T13:28:47.227Z,37.67
2023-04-06T13:31:15.526Z,37.16
2023-04-06T13:33:43.407Z,36.93
2023-04-06T13:36:11.305Z,37.12
2023-04-06T13:38:40.305Z,38.46
2023-04-06T13:41:08.210Z,37.74
2023-04-06T13:43:36.055Z,36.85
2023-04-06T13:46:05.543Z,37.13
2023-04-06T13:48:33.384Z,37.45
2023-04-06T13:51:10.203Z,37.89
2023-04-06T13:53:39.565Z,36.65
2023-04-06T13:56:09.244Z,37.34
2023-04-06T13:58:37.648Z,36.21
2023-04-06T14:01:08.620Z,36.26
2023-04-06T14:03:37.354Z,37.56
2023-04-06T14:06:20.698Z,37.45
2023-04-06T14:08:55.735Z,37.44
2023-04-06T14:11:23.505Z,37.31
2023-04-06T14:13:51.287Z,36.59
2023-04-06T14:16:20.688Z,37.64
2023-04-06T14:18:48.640Z,37.58
2023-04-06T14:21:17.165Z,37.14
2023-04-06T14:23:45.073Z,37.23
2023-04-06T14:26:12.936Z,38.51
2023-04-06T14:28:40.792Z,36.88
2023-04-06T14:31:14.196Z,37.70
2023-04-06T14:33:44.419Z,37.81
2023-04-06T14:36:12.902Z,38.54
2023-04-06T14:38:41.460Z,37.15
2023-04-06T14:41:10.308Z,37.56
2023-04-06T14:43:38.136Z,38.18
2023-04-06T14:46:06.078Z,38.40
2023-04-06T14:48:33.839Z,37.93
2023-04-06T14:51:03.194Z,38.43
2023-04-06T14:53:31.407Z,37.69
2023-04-06T14:55:59.195Z,37.75
2023-04-06T14:58:27.858Z,37.34
2023-04-06T15:00:57.817Z,37.93
2023-04-06T15:03:26.563Z,37.26
2023-04-06T15:05:54.512Z,38.54
2023-04-06T15:08:24.203Z,37.44
2023-04-06T15:10:52.780Z,37.80
2023-04-06T15:13:21.040Z,37.89
2023-04-06T15:15:48.868Z,37.45
2023-04-06T15:18:16.762Z,38.05
2023-04-06T15:20:44.623Z,37.19
2023-04-06T15:23:12.355Z,37.43
2023-04-06T15:25:42.226Z,38.21
2023-04-06T15:28:10.283Z,38.02
2023-04-06T15:30:38.441Z,37.98
2023-04-06T15:33:08.632Z,38.38
2023-04-06T15:35:40.389Z,38.71
2023-04-06T15:38:08.591Z,38.80
2023-04-06T15:40:43.728Z,37.57
2023-04-06T15:43:12.941Z,37.15
2023-04-06T15:45:41.780Z,37.11
2023-04-06T15:48:10.293Z,37.74
2023-04-06T15:50:38.400Z,38.10
2023-04-06T15:53:07.228Z,37.13
2023-04-06T15:55:35.293Z,37.61
2023-04-06T15:58:03.132Z,37.28
2023-04-06T16:00:32.360Z,37.56
2023-04-06T16:03:00.460Z,38.09
2023-04-06T16:05:34.017Z,37.54
2023-04-06T16:08:02.559Z,37.69
2023-04-06T16:10:30.354Z,38.43
2023-04-06T16:12:58.094Z,37.73
2023-04-06T16:15:26.150Z,38.46
2023-04-06T16:17:55.437Z,38.41
2023-04-06T16:20:23.488Z,38.55
2023-04-06T16:22:51.296Z,38.77
2023-04-06T16:25:19.090Z,38.29
2023-04-06T16:27:47.024Z,38.60
2023-04-06T16:30:15.399Z,39.19
2023-04-06T16:32:45.758Z,39.39
2023-04-06T16:35:14.911Z,39.97
2023-04-06T16:37:42.807Z,39.92
2023-04-06T16:40:11.412Z,40.31
2023-04-06T16:42:39.196Z,39.76
2023-04-06T16:45:08.430Z,39.97
2023-04-06T16:47:36.857Z,40.17
2023-04-06T16:50:06.443Z,40.21
2023-04-06T16:52:35.886Z,40.21
2023-04-06T16:55:03.716Z,40.44
2023-04-06T16:57:31.543Z,40.79
2023-04-06T16:59:59.793Z,39.92
2023-04-06T17:02:27.876Z,40.62
2023-04-06T17:04:55.812Z,40.23
2023-04-06T17:07:26.507Z,40.66
2023-04-06T17:09:55.588Z,41.06
2023-04-06T17:12:23.333Z,41.03
2023-04-06T17:14:51.314Z,41.08
2023-04-06T17:17:19.046Z,41.16
2023-04-06T17:19:46.806Z,41.43
2023-04-06T17:22:20.355Z,41.66
2023-04-06T17:24:49.311Z,42.07
2023-04-06T17:27:18.508Z,41.83
2023-04-06T17:29:46.223Z,42.04
2023-04-06T17:32:14.019Z,42.20
2023-04-06T17:34:41.805Z,42.60
2023-04-06T17:37:09.529Z,42.56
2023-04-06T17:39:37.453Z,42.46
2023-04-06T17:42:06.041Z,42.62
2023-04-06T17:44:35.125Z,43.08
2023-04-06T17:47:02.876Z,43.19
2023-04-06T17:49:30.690Z,43.92
2023-04-06T17:51:58.438Z,43.26
2023-04-06T17:54:26.433Z,43.66
2023-04-06T17:56:54.293Z,44.25
2023-04-06T17:59:22.105Z,44.09
2023-04-06T18:01:51.255Z,44.31
2023-04-06T18:04:19.354Z,44.18
2023-04-06T18:06:47.272Z,44.53
2023-04-06T18:09:15.711Z,44.68
2023-04-06T18:11:44.546Z,44.64
2023-04-06T18:14:13.547Z,45.68
2023-04-06T18:16:42.334Z,44.91
2023-04-06T18:19:11.497Z,45.70
2023-04-06T18:21:39.249Z,45.90
2023-04-06T18:24:08.083Z,45.79
2023-04-06T18:26:37.944Z,45.92
2023-04-06T18:29:06.268Z,45.72
2023-04-06T18:34:07.139Z,46.10
2023-04-06T18:36:36.590Z,45.98
2023-04-06T18:39:04.742Z,45.54
2023-04-06T18:41:32.673Z,45.85
2023-04-06T18:44:00.450Z,45.88
2023-04-06T18:46:28.263Z,45.97
2023-04-06T18:48:56.050Z,46.12
2023-04-06T18:51:23.873Z,47.40
2023-04-06T18:53:52.947Z,48.61
2023-04-06T18:56:21.415Z,48.58
2023-04-06T18:58:49.717Z,49.66
2023-04-06T19:01:25.268Z,49.99
2023-04-06T19:03:54.222Z,50.89
2023-04-06T19:06:22.484Z,51.35
2023-04-06T19:08:50.674Z,52.68
2023-04-06T19:11:19.949Z,52.92
2023-04-06T19:13:50.202Z,54.43
2023-04-06T19:16:18.661Z,54.17
2023-04-06T19:18:46.425Z,53.62
2023-04-06T19:21:17.778Z,54.50
2023-04-06T19:23:45.812Z,54.69
2023-04-06T19:26:14.446Z,54.96
2023-04-06T19:28:43.971Z,55.53
2023-04-06T19:31:14.573Z,55.61
2023-04-06T19:33:43.375Z,55.72
2023-04-06T19:36:11.448Z,55.33
2023-04-06T19:38:40.009Z,55.94
2023-04-06T19:41:08.072Z,56.48
2023-04-06T19:43:35.886Z,56.28
2023-04-06T19:46:05.750Z,56.52
2023-04-06T19:48:34.280Z,56.54
2023-04-06T19:51:02.252Z,56.56
2023-04-06T19:53:30.061Z,56.77
2023-04-06T19:55:57.813Z,57.37
2023-04-06T19:58:25.552Z,57.59
2023-04-06T20:00:53.377Z,58.38
2023-04-06T20:03:22.577Z,59.11
2023-04-06T20:05:50.627Z,60.13
2023-04-06T20:08:18.459Z,60.44
2023-04-06T20:10:46.272Z,60.57
2023-04-06T20:13:14.133Z,60.81
2023-04-06T20:15:43.630Z,61.36
2023-04-06T20:18:11.502Z,61.46
2023-04-06T20:20:40.606Z,61.73
2023-04-06T20:23:08.570Z,62.91
2023-04-06T20:25:36.319Z,63.93
2023-04-06T20:28:04.061Z,64.71
2023-04-06T20:30:31.996Z,64.86
2023-04-06T20:32:59.830Z,65.78
2023-04-06T20:35:27.762Z,66.68
2023-04-06T20:37:57.379Z,67.66
2023-04-06T20:40:25.249Z,68.29
2023-04-06T20:42:56.096Z,68.47
2023-04-06T20:45:24.297Z,68.67
2023-04-06T20:47:53.408Z,68.85
2023-04-06T20:50:21.559Z,69.54
2023-04-06T20:52:49.646Z,69.79
2023-04-06T20:55:19.163Z,70.17
2023-04-06T20:57:46.947Z,70.39
2023-04-06T21:00:15.778Z,70.89
2023-04-06T21:02:43.758Z,70.60
2023-04-06T21:05:11.895Z,70.53
2023-04-06T21:07:39.681Z,71.04
2023-04-06T21:10:09.287Z,71.11
2023-04-06T21:12:38.445Z,71.61
2023-04-06T21:15:07.166Z,71.55
2023-04-06T21:17:35.045Z,71.81
2023-04-06T21:20:03.924Z,71.75
2023-04-06T21:22:31.748Z,72.27
2023-04-06T21:24:59.546Z,72.61
2023-04-06T21:27:27.346Z,72.53
2023-04-06T21:29:56.454Z,72.10
2023-04-06T21:32:24.416Z,72.43
2023-04-06T21:34:52.200Z,72.78
2023-04-06T21:37:19.995Z,73.45
2023-04-06T21:39:47.829Z,74.15
2023-04-06T21:42:15.567Z,74.66
2023-04-06T21:44:43.293Z,75.28
2023-04-06T21:47:12.416Z,75.70
2023-04-06T21:49:40.319Z,75.99
2023-04-06T21:52:08.081Z,75.85
2023-04-06T21:54:36.383Z,76.08
2023-04-06T21:57:04.152Z,76.10
2023-04-06T21:59:32.097Z,76.60
2023-04-06T22:02:00.032Z,76.51
2023-04-06T22:04:29.350Z,76.21
2023-04-06T22:06:57.144Z,76.49
2023-04-06T22:09:24.954Z,76.81
2023-04-06T22:11:52.712Z,77.20
2023-04-06T22:14:21.566Z,77.44
2023-04-06T22:16:49.611Z,77.35
2023-04-06T22:19:17.399Z,77.48
2023-04-06T22:21:46.618Z,77.74
2023-04-06T22:24:14.680Z,77.56
2023-04-06T22:26:42.429Z,77.67
2023-04-06T22:29:10.157Z,77.93
2023-04-06T22:31:37.990Z,78.10
2023-04-06T22:34:05.852Z,78.11
2023-04-06T22:36:33.673Z,78.13
2023-04-06T22:39:02.819Z,77.98
2023-04-06T22:41:30.602Z,77.94
2023-04-06T22:43:58.321Z,78.04
2023-04-06T22:46:26.136Z,78.33
2023-04-06T22:48:53.893Z,78.21
2023-04-06T22:51:21.738Z,78.19
2023-04-06T22:53:49.604Z,78.43
2023-04-06T22:56:18.696Z,78.19
2023-04-06T22:58:46.451Z,78.64
2023-04-06T23:01:14.323Z,78.94
2023-04-06T23:03:42.242Z,79.14
2023-04-06T23:06:10.111Z,79.25
2023-04-06T23:08:37.873Z,79.29
2023-04-06T23:11:05.769Z,79.55
2023-04-06T23:13:34.928Z,80.07
2023-04-06T23:16:02.725Z,80.26
2023-04-06T23:18:30.661Z,80.77
2023-04-06T23:20:58.412Z,81.18
2023-04-06T23:23:26.354Z,81.30
2023-04-06T23:25:54.112Z,81.31
2023-04-06T23:28:21.833Z,81.27
2023-04-06T23:30:51.008Z,80.96
2023-04-06T23:33:18.869Z,81.04
2023-04-06T23:35:46.962Z,80.90
2023-04-06T23:38:14.781Z,81.01
2023-04-06T23:40:42.561Z,81.46
2023-04-06T23:43:10.521Z,81.53
2023-04-06T23:45:41.256Z,81.64
2023-04-06T23:48:10.882Z,81.91
2023-04-06T23:50:40.980Z,81.93
2023-04-06T23:53:08.699Z,81.77
2023-04-06T23:55:36.600Z,81.80
2023-04-06T23:58:04.534Z,81.73
